createdAt,value
2023-04-03T00:01:18.075Z,3.23
2023-04-03T00:03:45.321Z,3.20
2023-04-03T00:06:13.074Z,2.87
2023-04-03T00:08:40.509Z,2.83
2023-04-03T00:11:07.732Z,3.23
2023-04-03T00:13:34.568Z,3.17
2023-04-03T00:16:01.484Z,3.00
2023-04-03T00:18:28.508Z,3.23
2023-04-03T00:20:55.448Z,3.30
2023-04-03T00:23:22.188Z,2.80
2023-04-03T00:25:48.954Z,3.27
2023-04-03T00:28:15.821Z,3.33
2023-04-03T00:30:42.692Z,2.90
2023-04-03T00:33:12.632Z,3.10
2023-04-03T00:35:39.885Z,3.47
2023-04-03T00:38:07.518Z,3.10
2023-04-03T00:40:42.685Z,3.37
2023-04-03T00:43:17.053Z,2.97
2023-04-03T00:45:45.022Z,3.57
2023-04-03T00:48:14.308Z,3.00
2023-04-03T00:50:42.424Z,3.50
2023-04-03T00:53:12.660Z,3.20
2023-04-03T00:55:40.106Z,3.47
2023-04-03T00:58:08.217Z,3.60
2023-04-03T01:00:37.119Z,3.70
2023-04-03T01:03:04.271Z,3.43
2023-04-03T01:05:31.401Z,3.87
2023-04-03T01:08:00.006Z,3.10
2023-04-03T01:10:27.115Z,3.40
2023-04-03T01:12:54.301Z,3.30
2023-04-03T01:15:27.468Z,3.20
2023-04-03T01:17:57.485Z,3.10
2023-04-03T01:20:33.159Z,3.20
2023-04-03T01:23:10.054Z,3.63
2023-04-03T01:25:41.855Z,2.93
2023-04-03T01:28:11.175Z,3.20
2023-04-03T01:30:42.462Z,3.10
2023-04-03T01:33:09.404Z,3.50
2023-04-03T01:35:36.380Z,3.13
2023-04-03T01:38:03.388Z,4.00
2023-04-03T01:40:30.247Z,3.70
2023-04-03T01:42:57.018Z,4.00
2023-04-03T01:45:24.084Z,3.67
2023-04-03T01:47:53.190Z,4.30
2023-04-03T01:50:20.020Z,4.17
2023-04-03T01:52:46.891Z,4.43
2023-04-03T01:55:13.607Z,4.03
2023-04-03T01:57:40.369Z,4.40
2023-04-03T02:00:07.482Z,4.50
2023-04-03T02:02:40.145Z,4.87
2023-04-03T02:05:07.657Z,4.80
2023-04-03T02:07:34.474Z,5.23
2023-04-03T02:10:01.935Z,5.10
2023-04-03T02:12:28.711Z,4.73
2023-04-03T02:14:55.548Z,5.43
2023-04-03T02:17:22.300Z,5.47
2023-04-03T02:19:49.074Z,5.93
2023-04-03T02:22:15.992Z,6.17
2023-04-03T02:24:42.815Z,6.23
2023-04-03T02:27:09.658Z,6.87
2023-04-03T02:29:36.339Z,6.40
2023-04-03T02:32:03.192Z,6.17
2023-04-03T02:34:32.025Z,6.87
2023-04-03T02:37:00.743Z,6.33
2023-04-03T02:39:27.494Z,6.53
2023-04-03T02:41:55.625Z,6.93
2023-04-03T02:44:25.870Z,6.63
2023-04-03T02:46:53.795Z,7.20
2023-04-03T02:49:20.865Z,7.40
2023-04-03T02:51:48.708Z,7.23
2023-04-03T02:54:15.730Z,7.60
2023-04-03T02:56:47.377Z,7.50
2023-04-03T02:59:14.194Z,7.37
2023-04-03T03:01:41.668Z,7.20
2023-04-03T03:04:08.558Z,7.60
2023-04-03T03:06:35.580Z,8.00
2023-04-03T03:09:02.724Z,7.37
2023-04-03T03:11:29.535Z,6.93
2023-04-03T03:13:56.488Z,6.60
2023-04-03T03:16:26.265Z,7.13
2023-04-03T03:18:52.999Z,7.63
2023-04-03T03:21:19.863Z,8.97
2023-04-03T03:23:46.633Z,7.30
2023-04-03T03:26:13.608Z,7.40
2023-04-03T03:28:41.573Z,7.40
2023-04-03T03:31:09.635Z,7.83
2023-04-03T03:33:38.363Z,7.67
2023-04-03T03:36:05.288Z,7.83
2023-04-03T03:38:32.090Z,8.20
2023-04-03T03:41:00.822Z,8.30
2023-04-03T03:43:28.173Z,8.53
2023-04-03T03:45:55.086Z,8.37
2023-04-03T03:48:24.053Z,9.40
2023-04-03T03:50:51.291Z,9.77
2023-04-03T03:53:20.708Z,9.30
2023-04-03T03:55:49.683Z,9.30
2023-04-03T03:58:17.238Z,9.93
2023-04-03T04:00:44.018Z,10.70
2023-04-03T04:03:11.823Z,10.70
2023-04-03T04:05:38.968Z,10.10
2023-04-03T04:08:06.216Z,10.87
2023-04-03T04:10:34.043Z,11.67
2023-04-03T04:13:01.225Z,11.10
2023-04-03T04:15:32.278Z,11.43
2023-04-03T04:17:59.396Z,12.83
2023-04-03T04:20:26.372Z,11.83
2023-04-03T04:22:53.849Z,12.27
2023-04-03T04:25:22.368Z,13.60
2023-04-03T04:27:49.654Z,13.97
2023-04-03T04:30:17.062Z,14.27
2023-04-03T04:32:47.035Z,14.10
2023-04-03T04:35:16.781Z,13.87
2023-04-03T04:37:46.817Z,13.70
2023-04-03T04:40:14.627Z,14.03
2023-04-03T04:42:41.782Z,15.07
2023-04-03T04:45:08.933Z,14.47
2023-04-03T04:47:36.979Z,15.47
2023-04-03T04:50:04.591Z,15.23
2023-04-03T04:52:32.740Z,14.93
2023-04-03T04:54:59.898Z,14.27
2023-04-03T04:57:27.283Z,13.27
2023-04-03T04:59:54.801Z,14.33
2023-04-03T05:02:21.833Z,14.03
2023-04-03T05:04:48.731Z,14.60
2023-04-03T05:07:20.700Z,15.27
2023-04-03T05:09:47.482Z,14.27
2023-04-03T05:12:17.303Z,13.77
2023-04-03T05:14:50.389Z,14.63
2023-04-03T05:17:17.289Z,14.17
2023-04-03T05:19:49.374Z,13.53
2023-04-03T05:22:17.260Z,14.37
2023-04-03T05:24:45.140Z,13.97
2023-04-03T05:27:13.116Z,13.67
2023-04-03T05:29:45.397Z,13.77
2023-04-03T05:32:16.320Z,12.23
2023-04-03T05:34:43.681Z,13.30
2023-04-03T05:37:10.725Z,12.97
2023-04-03T05:39:39.516Z,13.17
2023-04-03T05:42:06.989Z,12.60
2023-04-03T05:44:34.552Z,12.40
2023-04-03T05:47:02.246Z,12.87
2023-04-03T05:49:29.686Z,12.20
2023-04-03T05:51:56.617Z,12.57
2023-04-03T05:54:27.574Z,12.07
2023-04-03T05:57:01.448Z,11.77
2023-04-03T05:59:29.594Z,11.20
2023-04-03T06:01:58.668Z,12.10
2023-04-03T06:04:25.850Z,11.90
2023-04-03T06:06:57.394Z,9.63
2023-04-03T06:09:27.443Z,10.47
2023-04-03T06:11:54.237Z,10.10
2023-04-03T06:14:23.703Z,9.13
2023-04-03T06:16:50.838Z,14.33
2023-04-03T06:19:17.656Z,9.57
2023-04-03T06:21:49.543Z,9.77
2023-04-03T06:24:17.099Z,9.03
2023-04-03T06:26:44.174Z,8.90
2023-04-03T06:29:10.894Z,8.50
2023-04-03T06:31:37.921Z,8.50
2023-04-03T06:34:05.249Z,8.00
2023-04-03T06:36:33.084Z,8.10
2023-04-03T06:38:59.911Z,8.87
2023-04-03T06:41:27.712Z,8.40
2023-04-03T06:43:54.634Z,8.50
2023-04-03T06:46:22.898Z,9.03
2023-04-03T06:48:50.371Z,8.40
2023-04-03T06:51:22.544Z,7.47
2023-04-03T06:53:49.719Z,6.37
2023-04-03T06:56:17.634Z,7.23
2023-04-03T06:58:45.349Z,7.77
2023-04-03T07:01:14.389Z,6.30
2023-04-03T07:03:41.226Z,7.00
2023-04-03T07:06:09.050Z,6.60
2023-04-03T07:08:36.255Z,5.53
2023-04-03T07:11:03.537Z,5.60
2023-04-03T07:13:31.368Z,5.17
2023-04-03T07:15:58.781Z,4.40
2023-04-03T07:18:25.748Z,4.73
2023-04-03T07:20:52.807Z,4.57
2023-04-03T07:23:20.816Z,3.97
2023-04-03T07:25:48.116Z,2.93
2023-04-03T07:28:15.440Z,3.10
2023-04-03T07:30:49.426Z,2.57
2023-04-03T07:33:17.275Z,2.40
2023-04-03T07:35:44.345Z,2.30
2023-04-03T07:38:13.107Z,2.23
2023-04-03T07:40:40.065Z,2.40
2023-04-03T07:43:06.969Z,2.00
2023-04-03T07:45:36.012Z,1.80
2023-04-03T07:48:03.560Z,1.87
2023-04-03T07:50:32.390Z,1.73
2023-04-03T07:52:59.479Z,2.13
2023-04-03T07:55:26.568Z,2.13
2023-04-03T07:57:53.343Z,1.90
2023-04-03T08:00:20.959Z,1.83
2023-04-03T08:02:52.852Z,1.43
2023-04-03T08:05:20.277Z,2.07
2023-04-03T08:07:47.917Z,1.63
2023-04-03T08:10:15.528Z,1.90
2023-04-03T08:12:42.878Z,1.53
2023-04-03T08:15:10.056Z,1.50
2023-04-03T08:17:37.165Z,2.23
2023-04-03T08:20:05.673Z,1.50
2023-04-03T08:22:32.507Z,2.07
2023-04-03T08:24:59.921Z,1.60
2023-04-03T08:27:28.442Z,1.77
2023-04-03T08:29:55.772Z,1.60
2023-04-03T08:32:22.546Z,1.73
2023-04-03T08:34:49.256Z,1.67
2023-04-03T08:37:17.455Z,1.87
2023-04-03T08:39:44.593Z,1.83
2023-04-03T08:42:24.918Z,2.00
2023-04-03T08:44:58.008Z,1.70
2023-04-03T08:47:39.108Z,1.90
2023-04-03T08:50:13.591Z,1.70
2023-04-03T08:52:43.277Z,2.40
2023-04-03T08:55:28.975Z,1.70
2023-04-03T08:58:01.780Z,2.00
2023-04-03T09:00:30.886Z,1.77
2023-04-03T09:02:58.423Z,1.77
2023-04-03T09:05:28.277Z,1.80
2023-04-03T09:07:59.871Z,1.87
2023-04-03T09:10:29.381Z,2.23
2023-04-03T09:13:03.712Z,2.00
2023-04-03T09:15:38.541Z,2.13
2023-04-03T09:18:18.713Z,1.93
2023-04-03T09:20:57.748Z,2.17
2023-04-03T09:23:29.702Z,2.17
2023-04-03T09:26:01.465Z,2.13
2023-04-03T09:28:33.080Z,2.80
2023-04-03T09:31:03.211Z,1.57
2023-04-03T09:33:31.606Z,2.07
2023-04-03T09:35:58.466Z,1.63
2023-04-03T09:38:26.649Z,2.00
2023-04-03T09:41:02.657Z,1.80
2023-04-03T09:43:31.790Z,1.67
2023-04-03T09:46:19.412Z,2.03
2023-04-03T09:49:07.263Z,2.17
2023-04-03T09:51:35.475Z,1.80
2023-04-03T09:54:22.334Z,1.33
2023-04-03T09:56:52.857Z,1.60
2023-04-03T09:59:20.022Z,1.70
2023-04-03T10:02:22.074Z,1.57
2023-04-03T10:04:53.071Z,1.57
2023-04-03T10:07:28.422Z,1.80
2023-04-03T10:09:56.466Z,1.40
2023-04-03T10:12:24.136Z,1.47
2023-04-03T10:14:53.701Z,1.23
2023-04-03T10:17:39.062Z,1.30
2023-04-03T10:20:05.955Z,1.30
2023-04-03T10:22:38.227Z,1.40
2023-04-03T10:25:15.784Z,1.30
2023-04-03T10:27:48.687Z,1.17
2023-04-03T10:30:22.001Z,1.17
2023-04-03T10:33:21.991Z,1.27
2023-04-03T10:35:51.982Z,1.43
2023-04-03T10:38:22.073Z,1.10
2023-04-03T10:40:53.486Z,1.20
2023-04-03T10:43:39.086Z,1.30
2023-04-03T10:46:09.248Z,1.40
2023-04-03T10:48:41.376Z,1.60
2023-04-03T10:51:14.704Z,0.97
2023-04-03T10:53:41.792Z,1.37
2023-04-03T10:56:27.356Z,1.30
2023-04-03T10:59:07.299Z,1.30
2023-04-03T11:01:38.135Z,1.33
2023-04-03T11:04:06.292Z,1.20
2023-04-03T11:06:37.979Z,1.43
2023-04-03T11:09:10.092Z,0.93
2023-04-03T11:11:38.787Z,1.27
2023-04-03T11:14:17.406Z,1.20
2023-04-03T11:16:53.993Z,1.27
2023-04-03T11:19:39.641Z,1.00
2023-04-03T11:22:28.720Z,1.10
2023-04-03T11:25:15.144Z,1.23
2023-04-03T11:27:55.854Z,1.40
2023-04-03T11:30:32.547Z,1.27
2023-04-03T11:33:18.726Z,1.17
2023-04-03T11:35:47.516Z,1.30
2023-04-03T11:38:27.702Z,1.57
2023-04-03T11:40:56.373Z,1.43
2023-04-03T11:43:23.246Z,1.30
2023-04-03T11:45:54.127Z,1.37
2023-04-03T11:48:30.591Z,1.27
2023-04-03T11:50:57.848Z,1.27
2023-04-03T11:53:42.012Z,1.20
2023-04-03T11:56:21.109Z,1.47
2023-04-03T11:59:06.447Z,1.20
2023-04-03T12:01:52.358Z,1.43
2023-04-03T12:04:20.375Z,1.00
2023-04-03T12:06:48.619Z,1.20
2023-04-03T12:09:26.708Z,1.13
2023-04-03T12:11:54.084Z,1.43
2023-04-03T12:14:23.934Z,1.23
2023-04-03T12:16:52.566Z,1.93
2023-04-03T12:19:26.616Z,1.30
2023-04-03T12:22:00.466Z,1.40
2023-04-03T12:24:31.693Z,1.50
2023-04-03T12:26:58.396Z,1.60
2023-04-03T12:29:34.638Z,1.80
2023-04-03T12:32:08.494Z,1.50
2023-04-03T12:34:54.335Z,1.43
2023-04-03T12:37:26.461Z,1.10
2023-04-03T12:40:11.702Z,1.43
2023-04-03T12:42:41.292Z,1.13
2023-04-03T12:45:19.205Z,1.00
2023-04-03T12:47:46.076Z,1.10
2023-04-03T12:50:22.495Z,1.37
2023-04-03T12:52:52.386Z,1.30
2023-04-03T12:55:20.358Z,1.23
2023-04-03T12:57:47.402Z,0.93
2023-04-03T13:00:34.693Z,1.40
2023-04-03T13:03:03.197Z,1.40
2023-04-03T13:05:30.825Z,1.30
2023-04-03T13:08:00.358Z,1.30
2023-04-03T13:10:27.069Z,1.20
2023-04-03T13:12:55.316Z,0.80
2023-04-03T13:15:27.240Z,1.20
2023-04-03T13:17:54.592Z,1.30
2023-04-03T13:20:21.649Z,1.20
2023-04-03T13:22:50.601Z,1.20
2023-04-03T13:25:17.825Z,1.00
2023-04-03T13:27:45.314Z,0.97
2023-04-03T13:30:30.706Z,1.03
2023-04-03T13:32:59.366Z,1.60
2023-04-03T13:35:28.907Z,1.20
2023-04-03T13:37:56.585Z,0.93
2023-04-03T13:40:23.962Z,1.20
2023-04-03T13:43:18.854Z,1.17
2023-04-03T13:46:01.327Z,1.10
2023-04-03T13:48:28.376Z,1.10
2023-04-03T13:51:18.209Z,1.57
2023-04-03T13:53:46.683Z,1.40
2023-04-03T13:56:22.096Z,1.50
2023-04-03T13:59:00.631Z,1.20
2023-04-03T14:01:33.973Z,1.50
2023-04-03T14:04:02.378Z,1.10
2023-04-03T14:06:30.569Z,1.13
2023-04-03T14:08:57.396Z,1.07
2023-04-03T14:11:28.501Z,0.90
2023-04-03T14:13:56.857Z,1.10
2023-04-03T14:16:24.884Z,0.97
2023-04-03T14:18:52.485Z,1.03
2023-04-03T14:21:19.740Z,1.17
2023-04-03T14:23:47.272Z,1.30
2023-04-03T14:26:18.982Z,1.43
2023-04-03T14:28:46.820Z,1.07
2023-04-03T14:31:14.069Z,1.20
2023-04-03T14:33:41.237Z,1.10
2023-04-03T14:36:28.298Z,1.20
2023-04-03T14:38:55.276Z,1.33
2023-04-03T14:41:23.712Z,1.03
2023-04-03T14:43:51.681Z,0.90
2023-04-03T14:46:54.559Z,1.27
2023-04-03T14:49:24.884Z,0.80
2023-04-03T14:51:51.729Z,1.03
2023-04-03T14:54:26.501Z,0.87
2023-04-03T14:56:54.157Z,1.17
2023-04-03T14:59:22.670Z,1.00
2023-04-03T15:01:50.046Z,1.00
2023-04-03T15:04:18.110Z,1.10
2023-04-03T15:06:45.951Z,0.97
2023-04-03T15:09:31.371Z,0.70
2023-04-03T15:11:58.607Z,1.10
2023-04-03T15:14:37.031Z,0.87
2023-04-03T15:17:06.127Z,0.90
2023-04-03T15:19:37.049Z,0.90
2023-04-03T15:22:03.782Z,1.00
2023-04-03T15:24:30.644Z,1.03
2023-04-03T15:26:57.687Z,0.70
2023-04-03T15:29:25.310Z,1.20
2023-04-03T15:31:54.859Z,0.90
2023-04-03T15:34:23.093Z,0.90
2023-04-03T15:36:50.462Z,0.97
2023-04-03T15:39:17.920Z,1.20
2023-04-03T15:41:45.230Z,1.20
2023-04-03T15:44:13.451Z,1.50
2023-04-03T15:46:40.504Z,1.27
2023-04-03T15:49:07.744Z,1.10
2023-04-03T15:51:34.495Z,1.40
2023-04-03T15:54:01.247Z,1.33
2023-04-03T15:56:28.150Z,1.47
2023-04-03T15:58:54.959Z,1.00
2023-04-03T16:01:21.788Z,1.30
2023-04-03T16:03:48.797Z,1.50
2023-04-03T16:06:23.824Z,4.03
2023-04-03T16:08:50.817Z,1.73
2023-04-03T16:11:17.603Z,1.30
2023-04-03T16:13:44.591Z,1.50
2023-04-03T16:16:11.487Z,1.43
2023-04-03T16:18:38.338Z,1.30
2023-04-03T16:21:07.237Z,1.20
2023-04-03T16:23:34.162Z,1.20
2023-04-03T16:26:00.948Z,1.50
2023-04-03T16:28:27.916Z,1.00
2023-04-03T16:30:54.722Z,1.60
2023-04-03T16:33:23.088Z,1.27
2023-04-03T16:35:51.422Z,1.13
2023-04-03T16:38:19.955Z,1.33
2023-04-03T16:40:46.963Z,1.30
2023-04-03T16:43:13.841Z,1.17
2023-04-03T16:45:40.855Z,1.40
2023-04-03T16:48:08.440Z,1.63
2023-04-03T16:50:35.236Z,1.10
2023-04-03T16:53:04.091Z,1.50
2023-04-03T16:55:31.180Z,0.97
2023-04-03T16:57:58.372Z,1.30
2023-04-03T17:00:25.152Z,1.27
2023-04-03T17:02:52.085Z,0.93
2023-04-03T17:05:18.884Z,1.70
2023-04-03T17:07:45.783Z,1.40
2023-04-03T17:10:13.439Z,1.07
2023-04-03T17:12:40.240Z,1.30
2023-04-03T17:15:07.343Z,1.77
2023-04-03T17:17:34.318Z,1.40
2023-04-03T17:20:01.418Z,1.30
2023-04-03T17:22:28.757Z,1.00
2023-04-03T17:24:55.589Z,1.33
2023-04-03T17:27:22.385Z,1.30
2023-04-03T17:29:49.244Z,1.33
2023-04-03T17:32:16.739Z,1.57
2023-04-03T17:34:43.747Z,1.50
2023-04-03T17:37:10.657Z,1.40
2023-04-03T17:39:40.254Z,1.20
2023-04-03T17:42:07.055Z,1.43
2023-04-03T17:44:33.839Z,1.27
2023-04-03T17:47:01.018Z,1.50
2023-04-03T17:49:27.823Z,0.90
2023-04-03T17:51:54.680Z,1.33
2023-04-03T17:54:21.475Z,1.67
2023-04-03T17:56:48.476Z,1.33
2023-04-03T17:59:16.797Z,1.53
2023-04-03T18:01:44.751Z,1.30
2023-04-03T18:04:11.731Z,1.50
2023-04-03T18:06:45.982Z,2.00
2023-04-03T18:09:15.893Z,1.60
2023-04-03T18:11:43.623Z,1.73
2023-04-03T18:14:10.726Z,1.43
2023-04-03T18:16:37.700Z,2.00
2023-04-03T18:21:35.371Z,1.43
2023-04-03T18:24:03.130Z,1.40
2023-04-03T18:26:30.418Z,1.50
2023-04-03T18:29:00.311Z,1.60
2023-04-03T18:31:27.807Z,1.80
2023-04-03T18:33:56.257Z,1.63
2023-04-03T18:36:23.026Z,1.77
2023-04-03T18:38:49.770Z,1.57
2023-04-03T18:41:16.634Z,1.50
2023-04-03T18:43:43.816Z,1.50
2023-04-03T18:46:11.207Z,1.50
2023-04-03T18:48:41.526Z,2.87
2023-04-03T18:51:10.021Z,2.30
2023-04-03T18:53:37.386Z,2.47
2023-04-03T18:56:04.758Z,2.90
2023-04-03T18:58:31.891Z,2.03
2023-04-03T19:00:59.814Z,1.63
2023-04-03T19:03:27.507Z,1.57
2023-04-03T19:05:54.552Z,1.57
2023-04-03T19:08:21.394Z,2.13
2023-04-03T19:10:48.955Z,2.27
2023-04-03T19:13:16.045Z,1.70
2023-04-03T19:15:43.097Z,2.27
2023-04-03T19:18:10.052Z,2.17
2023-04-03T19:20:37.191Z,1.60
2023-04-03T19:23:03.993Z,1.80
2023-04-03T19:25:30.876Z,1.30
2023-04-03T19:27:58.603Z,1.67
2023-04-03T19:30:25.933Z,2.00
2023-04-03T19:32:52.955Z,1.47
2023-04-03T19:35:19.944Z,1.60
2023-04-03T19:37:50.940Z,1.90
2023-04-03T19:40:18.055Z,1.67
2023-04-03T19:42:45.231Z,1.90
2023-04-03T19:45:12.872Z,1.90
2023-04-03T19:47:39.834Z,1.60
2023-04-03T19:50:07.114Z,1.60
2023-04-03T19:52:33.868Z,3.27
2023-04-03T19:55:01.230Z,9.10
2023-04-03T19:57:28.158Z,4.40
2023-04-03T19:59:54.984Z,7.10
2023-04-03T20:02:21.955Z,4.40
2023-04-03T20:04:52.353Z,3.40
2023-04-03T20:07:19.264Z,2.27
2023-04-03T20:09:46.247Z,1.93
2023-04-03T20:12:13.869Z,2.30
2023-04-03T20:14:41.196Z,2.13
2023-04-03T20:17:09.007Z,2.10
2023-04-03T20:19:35.982Z,2.10
2023-04-03T20:22:02.938Z,2.10
2023-04-03T20:24:31.216Z,2.03
2023-04-03T20:26:58.138Z,1.90
2023-04-03T20:29:25.382Z,2.40
2023-04-03T20:31:56.294Z,1.90
2023-04-03T20:34:23.219Z,2.10
2023-04-03T20:36:50.332Z,1.60
2023-04-03T20:39:19.244Z,2.03
2023-04-03T20:41:46.105Z,2.37
2023-04-03T20:44:12.994Z,2.30
2023-04-03T20:46:52.020Z,1.80
2023-04-03T20:49:21.237Z,1.40
2023-04-03T20:51:48.979Z,1.63
2023-04-03T20:54:15.851Z,1.50
2023-04-03T20:56:44.268Z,1.80
2023-04-03T20:59:12.972Z,1.60
2023-04-03T21:01:39.947Z,1.47
2023-04-03T21:04:10.691Z,1.80
2023-04-03T21:06:56.664Z,2.60
2023-04-03T21:09:42.447Z,1.77
2023-04-03T21:12:27.735Z,1.50
2023-04-03T21:15:16.389Z,1.33
2023-04-03T21:17:57.147Z,1.77
2023-04-03T21:20:23.970Z,1.80
2023-04-03T21:22:50.898Z,1.57
2023-04-03T21:25:17.831Z,1.83
2023-04-03T21:27:44.616Z,1.70
2023-04-03T21:30:11.705Z,2.10
2023-04-03T21:32:38.528Z,1.57
2023-04-03T21:35:05.865Z,1.70
2023-04-03T21:37:33.754Z,1.80
2023-04-03T21:40:00.601Z,1.53
2023-04-03T21:42:27.379Z,1.50
2023-04-03T21:44:54.235Z,1.53
2023-04-03T21:47:21.604Z,1.73
2023-04-03T21:49:48.427Z,1.53
2023-04-03T21:52:15.818Z,1.80
2023-04-03T21:54:42.638Z,1.40
2023-04-03T21:57:11.956Z,1.80
2023-04-03T21:59:39.251Z,1.53
2023-04-03T22:02:06.257Z,1.80
2023-04-03T22:04:33.586Z,1.50
2023-04-03T22:07:00.331Z,1.70
2023-04-03T22:09:27.156Z,1.67
2023-04-03T22:11:55.216Z,1.93
2023-04-03T22:14:22.065Z,1.80
2023-04-03T22:16:48.915Z,1.67
2023-04-03T22:19:15.861Z,1.60
2023-04-03T22:21:43.568Z,1.70
2023-04-03T22:24:10.464Z,1.70
2023-04-03T22:26:38.069Z,1.60
2023-04-03T22:29:06.332Z,1.73
2023-04-03T22:31:33.274Z,1.37
2023-04-03T22:34:04.204Z,1.70
2023-04-03T22:36:31.190Z,1.77
2023-04-03T22:38:58.542Z,1.40
2023-04-03T22:41:25.461Z,1.80
2023-04-03T22:43:52.312Z,1.80
2023-04-03T22:46:19.185Z,1.50
2023-04-03T22:48:45.934Z,1.73
2023-04-03T22:51:13.160Z,1.83
2023-04-03T22:53:40.077Z,1.77
2023-04-03T22:56:14.013Z,1.90
2023-04-03T22:58:41.120Z,2.07
2023-04-03T23:01:10.303Z,1.90
2023-04-03T23:03:37.757Z,1.90
2023-04-03T23:06:05.687Z,2.00
2023-04-03T23:08:34.734Z,1.90
2023-04-03T23:11:01.952Z,1.90
2023-04-03T23:13:28.764Z,2.20
2023-04-03T23:15:56.560Z,1.77
2023-04-03T23:18:23.594Z,3.10
2023-04-03T23:20:55.183Z,2.80
2023-04-03T23:23:23.765Z,2.00
2023-04-03T23:25:57.428Z,2.63
2023-04-03T23:28:24.522Z,2.03
2023-04-03T23:30:57.190Z,2.10
2023-04-03T23:33:23.964Z,2.40
2023-04-03T23:35:52.196Z,2.30
2023-04-03T23:38:19.054Z,1.97
2023-04-03T23:40:46.388Z,2.10
2023-04-03T23:43:13.316Z,1.90
2023-04-03T23:45:40.181Z,2.40
2023-04-03T23:48:07.001Z,1.93
2023-04-03T23:50:33.775Z,1.83
2023-04-03T23:53:01.137Z,2.20
2023-04-03T23:55:27.886Z,2.10
2023-04-03T23:57:54.624Z,2.47
